Calliham, Texas
Current Conditions -  °F | °C
As of 4:58 PM on Friday 28 Nov 2014 (Local Time) from KNMT Reporting Station
Clear Clear  
Wind Chill: 76°   Ceiling: Unl
Heat Index: 76°   Visibility: NA
Dew Point: 45°   Wind: 10mph
Humidity: 33%   Direction: 160°SSE
Pressure: 30.09"   Gusts: 21mph
Location:  28.48°N, 98.35°W
Report Text: KNMT 282258Z AUTO 16009G18KT CLR 24/07 A3009 RMK AO2 SLP108 T02440072 PNO $
Loading
Personal Weather Stations






























Interactive Weather Map New forecast layout! Learn more

10-Day Weather Forecast

Advertisements
Track Severe Weather on mobile